createdAt,value
2023-01-18T00:02:29.346Z,97196.06
2023-01-18T00:05:31.627Z,97194.00
2023-01-18T00:08:35.433Z,97176.66
2023-01-18T00:11:37.564Z,97183.00
2023-01-18T00:14:39.690Z,97166.59
2023-01-18T00:17:47.913Z,97168.25
2023-01-18T00:20:50.097Z,97156.97
2023-01-18T00:23:52.157Z,97154.25
2023-01-18T00:26:54.314Z,97161.59
2023-01-18T00:29:58.221Z,97161.94
2023-01-18T00:33:00.862Z,97169.66
2023-01-18T00:36:04.671Z,97178.59
2023-01-18T00:39:08.900Z,97178.44
2023-01-18T00:42:29.375Z,97186.19
2023-01-18T00:45:31.547Z,97195.91
2023-01-18T00:48:34.072Z,97211.72
2023-01-18T00:51:36.183Z,97205.53
2023-01-18T00:54:38.275Z,97208.41
2023-01-18T00:57:40.905Z,97202.34
2023-01-18T01:00:43.158Z,97197.63
2023-01-18T01:04:04.238Z,97216.03
2023-01-18T01:07:06.323Z,97218.63
2023-01-18T01:10:09.198Z,97219.72
2023-01-18T01:13:30.192Z,97224.81
2023-01-18T01:16:50.722Z,97220.41
2023-01-18T01:20:11.429Z,97210.09
2023-01-18T01:23:35.110Z,97213.41
2023-01-18T01:26:37.156Z,97220.91
2023-01-18T01:29:39.376Z,97222.59
2023-01-18T01:32:41.383Z,97218.19
2023-01-18T01:35:44.402Z,97204.66
2023-01-18T01:38:47.267Z,97202.75
2023-01-18T01:41:50.131Z,97204.16
2023-01-18T01:44:52.346Z,97208.44
2023-01-18T01:47:55.998Z,97205.94
2023-01-18T01:50:58.056Z,97200.16
2023-01-18T01:54:05.142Z,97205.63
2023-01-18T01:57:22.868Z,97205.38
2023-01-18T02:00:25.359Z,97209.63
2023-01-18T02:03:28.407Z,97211.31
2023-01-18T02:06:36.549Z,97214.50
2023-01-18T02:09:45.725Z,97212.59
2023-01-18T02:12:51.155Z,97221.28
2023-01-18T02:15:59.223Z,97217.72
2023-01-18T02:19:19.859Z,97213.31
2023-01-18T02:22:21.906Z,97232.69
2023-01-18T02:25:42.347Z,97236.50
2023-01-18T02:28:58.868Z,97224.38
2023-01-18T02:32:33.388Z,97221.53
2023-01-18T02:35:50.793Z,97220.38
2023-01-18T02:39:00.883Z,97213.84
2023-01-18T02:42:36.081Z,97217.66
2023-01-18T02:46:01.677Z,97223.38
2023-01-18T02:49:13.359Z,97228.22
2023-01-18T02:52:42.442Z,97227.53
2023-01-18T02:55:53.314Z,97227.75
2023-01-18T02:59:01.537Z,97229.66
2023-01-18T03:02:15.275Z,97235.34
2023-01-18T03:05:18.399Z,97240.47
2023-01-18T03:08:27.468Z,97232.78
2023-01-18T03:12:08.760Z,97227.56
2023-01-18T03:15:14.179Z,97241.44
2023-01-18T03:19:04.345Z,97236.56
2023-01-18T03:22:06.708Z,97240.34
2023-01-18T03:25:11.592Z,97243.06
2023-01-18T03:28:41.428Z,97228.16
2023-01-18T03:32:07.377Z,97234.44
2023-01-18T03:35:14.980Z,97233.47
2023-01-18T03:38:18.831Z,97208.34
2023-01-18T03:41:24.853Z,97229.78
2023-01-18T03:44:38.876Z,97238.94
2023-01-18T03:47:41.068Z,97240.34
2023-01-18T03:51:05.436Z,97254.84
2023-01-18T03:54:25.496Z,97267.88
2023-01-18T03:57:47.288Z,97268.34
2023-01-18T04:00:52.516Z,97282.22
2023-01-18T04:03:54.746Z,97286.03
2023-01-18T04:06:58.108Z,97301.91
2023-01-18T04:10:00.971Z,97316.75
2023-01-18T04:13:03.101Z,97321.72
2023-01-18T04:16:05.420Z,97327.19
2023-01-18T04:19:08.880Z,97342.09
2023-01-18T04:22:11.588Z,97358.72
2023-01-18T04:25:13.738Z,97365.81
2023-01-18T04:28:17.027Z,97372.22
2023-01-18T04:31:19.481Z,97373.16
2023-01-18T04:34:24.354Z,97364.84
2023-01-18T04:37:31.202Z,97354.88
2023-01-18T04:40:33.273Z,97355.69
2023-01-18T04:43:35.316Z,97355.56
2023-01-18T04:46:38.701Z,97352.25
2023-01-18T04:49:40.949Z,97358.53
2023-01-18T04:52:43.162Z,97359.56
2023-01-18T04:55:45.784Z,97357.78
2023-01-18T04:58:47.852Z,97349.88
2023-01-18T05:01:50.157Z,97350.94
2023-01-18T05:04:52.311Z,97356.13
2023-01-18T05:07:54.377Z,97363.22
2023-01-18T05:11:04.206Z,97364.53
2023-01-18T05:14:06.353Z,97365.38
2023-01-18T05:17:08.434Z,97370.59
2023-01-18T05:20:11.802Z,97375.19
2023-01-18T05:23:14.494Z,97374.03
2023-01-18T05:26:22.616Z,97386.84
2023-01-18T05:29:25.581Z,97385.63
2023-01-18T05:32:27.868Z,97400.44
2023-01-18T05:35:29.949Z,97416.78
2023-01-18T05:38:32.199Z,97423.66
2023-01-18T05:41:34.322Z,97432.34
2023-01-18T05:44:36.505Z,97441.81
2023-01-18T05:47:38.869Z,97448.91
2023-01-18T05:50:46.220Z,97456.03
2023-01-18T05:53:48.358Z,97463.66
2023-01-18T05:56:50.403Z,97470.50
2023-01-18T05:59:52.625Z,97472.38
2023-01-18T06:02:55.109Z,97483.34
2023-01-18T06:05:58.532Z,97482.28
2023-01-18T06:09:01.390Z,97478.63
2023-01-18T06:12:03.831Z,97483.84
2023-01-18T06:15:06.588Z,97484.91
2023-01-18T06:18:08.662Z,97480.38
2023-01-18T06:21:12.053Z,97487.06
2023-01-18T06:24:14.549Z,97470.28
2023-01-18T06:27:16.630Z,97465.81
2023-01-18T06:30:19.806Z,97459.12
2023-01-18T06:33:22.802Z,97448.69
2023-01-18T06:36:25.147Z,97443.16
2023-01-18T06:39:27.449Z,97473.72
2023-01-18T06:42:29.470Z,97496.25
2023-01-18T06:45:31.653Z,97516.28
2023-01-18T06:48:33.904Z,97519.62
2023-01-18T06:51:35.965Z,97533.72
2023-01-18T06:54:38.112Z,97540.59
2023-01-18T06:57:40.223Z,97561.69
2023-01-18T07:00:42.354Z,97565.84
2023-01-18T07:03:44.546Z,97558.16
2023-01-18T07:06:46.718Z,97574.00
2023-01-18T07:09:48.939Z,97583.50
2023-01-18T07:12:51.191Z,97603.62
2023-01-18T07:15:56.736Z,97614.56
2023-01-18T07:19:01.874Z,97613.75
2023-01-18T07:22:04.044Z,97616.16
2023-01-18T07:25:06.688Z,97621.03
2023-01-18T07:28:09.282Z,97628.97
2023-01-18T07:31:11.476Z,97641.81
2023-01-18T07:34:13.810Z,97641.38
2023-01-18T07:37:15.887Z,97650.66
2023-01-18T07:40:18.353Z,97640.09
2023-01-18T07:43:20.755Z,97646.19
2023-01-18T07:46:23.023Z,97642.62
2023-01-18T07:49:25.487Z,97649.72
2023-01-18T07:52:28.215Z,97654.63
2023-01-18T07:55:33.736Z,97651.81
2023-01-18T07:58:36.453Z,97659.31
2023-01-18T08:01:38.628Z,97662.44
2023-01-18T08:04:42.013Z,97681.19
2023-01-18T08:07:44.134Z,97679.22
2023-01-18T08:10:46.468Z,97694.75
2023-01-18T08:13:49.477Z,97707.97
2023-01-18T08:16:51.736Z,97714.41
2023-01-18T08:19:53.857Z,97728.00
2023-01-18T08:22:57.718Z,97731.56
2023-01-18T08:26:04.355Z,97732.28
2023-01-18T08:29:06.660Z,97740.31
2023-01-18T08:32:08.791Z,97754.22
2023-01-18T08:35:10.882Z,97755.88
2023-01-18T08:38:14.937Z,97758.00
2023-01-18T08:41:18.946Z,97762.47
2023-01-18T08:44:21.070Z,97760.16
2023-01-18T08:47:23.186Z,97759.38
2023-01-18T08:50:25.559Z,97772.91
2023-01-18T08:53:27.859Z,97790.47
2023-01-18T08:56:29.991Z,97795.00
2023-01-18T08:59:32.088Z,97812.09
2023-01-18T09:02:34.233Z,97827.06
2023-01-18T09:05:36.807Z,97837.50
2023-01-18T09:08:38.997Z,97843.47
2023-01-18T09:11:41.141Z,97839.06
2023-01-18T09:14:43.251Z,97844.78
2023-01-18T09:17:45.706Z,97843.41
2023-01-18T09:20:47.956Z,97847.12
2023-01-18T09:23:51.091Z,97859.66
2023-01-18T09:26:53.878Z,97866.13
2023-01-18T09:29:56.097Z,97861.63
2023-01-18T09:32:59.009Z,97874.06
2023-01-18T09:36:07.878Z,97856.56
2023-01-18T09:39:09.955Z,97881.47
2023-01-18T09:42:22.109Z,97890.59
2023-01-18T09:45:32.141Z,97907.13
2023-01-18T09:48:41.133Z,97912.87
2023-01-18T09:51:51.069Z,97900.38
2023-01-18T09:54:58.985Z,97898.59
2023-01-18T09:58:03.751Z,97897.09
2023-01-18T10:01:12.308Z,97900.44
2023-01-18T10:04:24.111Z,97908.59
2023-01-18T10:07:29.181Z,97921.50
2023-01-18T10:10:38.694Z,97914.13
2023-01-18T10:13:57.711Z,97914.38
2023-01-18T10:17:03.383Z,97898.63
2023-01-18T10:20:15.781Z,97900.53
2023-01-18T10:23:38.630Z,97899.56
2023-01-18T10:26:41.689Z,97909.84
2023-01-18T10:29:52.910Z,97907.09
2023-01-18T10:33:14.254Z,97908.50
2023-01-18T10:36:19.003Z,97919.41
2023-01-18T10:39:36.609Z,97904.72
2023-01-18T10:42:47.625Z,97917.41
2023-01-18T10:45:49.806Z,97921.84
2023-01-18T10:48:57.730Z,97944.25
2023-01-18T10:52:21.625Z,97942.50
2023-01-18T10:55:24.180Z,97949.44
2023-01-18T10:58:54.197Z,97952.16
2023-01-18T11:01:58.297Z,97954.16
2023-01-18T11:05:15.708Z,97969.66
2023-01-18T11:08:25.447Z,97977.28
2023-01-18T11:11:50.345Z,97976.56
2023-01-18T11:14:52.375Z,97985.69
2023-01-18T11:17:58.154Z,97972.69
2023-01-18T11:21:00.444Z,97979.03
2023-01-18T11:24:07.828Z,97980.19
2023-01-18T11:27:23.245Z,97979.00
2023-01-18T11:30:26.051Z,97980.56
2023-01-18T11:33:31.078Z,97969.25
2023-01-18T11:36:41.450Z,97984.75
2023-01-18T11:39:45.468Z,97979.63
2023-01-18T11:42:50.998Z,97984.47
2023-01-18T11:45:59.852Z,97984.28
2023-01-18T11:49:37.186Z,97986.78
2023-01-18T11:53:03.418Z,97979.94
2023-01-18T11:56:27.786Z,97985.66
2023-01-18T11:59:31.281Z,97994.38
2023-01-18T12:03:12.035Z,97992.34
2023-01-18T12:06:48.700Z,97991.63
2023-01-18T12:09:55.284Z,98005.69
2023-01-18T12:13:29.081Z,98006.81
2023-01-18T12:16:51.785Z,98006.09
2023-01-18T12:20:14.579Z,98006.06
2023-01-18T12:23:31.686Z,98014.34
2023-01-18T12:26:39.343Z,98020.06
2023-01-18T12:30:14.058Z,98028.16
2023-01-18T12:33:38.174Z,98027.56
2023-01-18T12:37:13.477Z,98031.50
2023-01-18T12:40:53.904Z,98040.03
2023-01-18T12:44:25.695Z,98049.25
2023-01-18T12:47:39.618Z,98054.00
2023-01-18T12:50:47.115Z,98052.19
2023-01-18T12:53:59.591Z,98058.28
2023-01-18T12:57:04.239Z,98062.69
2023-01-18T13:00:14.396Z,98054.00
2023-01-18T13:03:22.023Z,98044.69
2023-01-18T13:06:26.210Z,98046.97
2023-01-18T13:09:34.926Z,98054.97
2023-01-18T13:12:37.475Z,98055.06
2023-01-18T13:15:53.798Z,98045.88
2023-01-18T13:19:03.860Z,98056.47
2023-01-18T13:22:22.156Z,98081.75
2023-01-18T13:25:52.798Z,98079.03
2023-01-18T13:29:07.085Z,98091.78
2023-01-18T13:32:26.558Z,98104.34
2023-01-18T13:35:33.570Z,98099.94
2023-01-18T13:39:03.406Z,98105.41
2023-01-18T13:42:18.045Z,98119.72
2023-01-18T13:45:25.742Z,98114.47
2023-01-18T13:48:41.640Z,98126.84
2023-01-18T13:51:47.659Z,98137.56
2023-01-18T13:54:56.084Z,98132.31
2023-01-18T13:57:58.705Z,98149.94
2023-01-18T14:01:06.890Z,98151.66
2023-01-18T14:04:31.991Z,98150.19
2023-01-18T14:07:45.750Z,98149.56
2023-01-18T14:10:50.965Z,98160.62
2023-01-18T14:13:53.090Z,98163.25
2023-01-18T14:17:13.178Z,98164.31
2023-01-18T14:20:29.457Z,98164.31
2023-01-18T14:23:47.035Z,98173.38
2023-01-18T14:26:55.420Z,98164.69
2023-01-18T14:30:07.400Z,98168.16
2023-01-18T14:33:17.657Z,98173.53
2023-01-18T14:36:21.957Z,98178.78
2023-01-18T14:39:24.378Z,98177.56
2023-01-18T14:42:27.516Z,98176.69
2023-01-18T14:45:32.692Z,98193.50
2023-01-18T14:48:43.689Z,98190.38
2023-01-18T14:51:49.856Z,98190.47
2023-01-18T14:54:54.815Z,98200.03
2023-01-18T14:58:15.311Z,98199.81
2023-01-18T15:01:52.840Z,98194.66
2023-01-18T15:05:20.028Z,98205.38
2023-01-18T15:08:22.157Z,98216.69
2023-01-18T15:11:25.353Z,98209.06
2023-01-18T15:14:32.545Z,98210.22
2023-01-18T15:17:37.073Z,98212.22
2023-01-18T15:20:49.741Z,98213.41
2023-01-18T15:24:06.045Z,98223.16
2023-01-18T15:27:14.290Z,98231.97
2023-01-18T15:30:17.786Z,98242.66
2023-01-18T15:33:21.895Z,98229.03
2023-01-18T15:36:24.220Z,98226.34
2023-01-18T15:39:26.679Z,98216.78
2023-01-18T15:42:45.524Z,98223.19
2023-01-18T15:45:51.488Z,98225.19
2023-01-18T15:48:56.609Z,98216.72
2023-01-18T15:51:58.758Z,98217.03
2023-01-18T15:55:03.837Z,98216.53
2023-01-18T15:58:19.726Z,98207.44
2023-01-18T16:01:29.360Z,98211.41
2023-01-18T16:04:31.876Z,98228.62
2023-01-18T16:07:41.928Z,98232.28
2023-01-18T16:10:50.148Z,98225.87
2023-01-18T16:13:59.012Z,98226.28
2023-01-18T16:17:18.324Z,98220.97
2023-01-18T16:20:20.876Z,98224.72
2023-01-18T16:23:23.335Z,98236.06
2023-01-18T16:26:30.596Z,98237.09
2023-01-18T16:30:01.610Z,98229.66
2023-01-18T16:33:10.408Z,98219.50
2023-01-18T16:36:19.672Z,98213.12
2023-01-18T16:39:24.229Z,98213.44
2023-01-18T16:42:37.510Z,98217.19
2023-01-18T16:45:41.971Z,98241.72
2023-01-18T16:48:44.600Z,98252.19
2023-01-18T16:51:48.007Z,98262.00
2023-01-18T16:54:51.493Z,98269.94
2023-01-18T16:57:54.349Z,98285.56
2023-01-18T17:01:14.357Z,98289.75
2023-01-18T17:04:17.948Z,98278.56
2023-01-18T17:07:20.708Z,98263.06
2023-01-18T17:10:37.774Z,98261.69
2023-01-18T17:13:41.445Z,98264.94
2023-01-18T17:16:45.227Z,98257.19
2023-01-18T17:19:48.041Z,98255.28
2023-01-18T17:22:52.322Z,98239.59
2023-01-18T17:25:54.377Z,98229.75
2023-01-18T17:28:56.477Z,98229.22
2023-01-18T17:31:59.178Z,98227.78
2023-01-18T17:35:01.537Z,98233.09
2023-01-18T17:38:06.897Z,98230.41
2023-01-18T17:41:26.849Z,98227.03
2023-01-18T17:44:36.813Z,98220.22
2023-01-18T17:47:42.051Z,98218.44
2023-01-18T17:50:45.215Z,98215.81
2023-01-18T17:53:48.775Z,98224.63
2023-01-18T17:56:53.862Z,98228.91
2023-01-18T17:59:57.110Z,98221.25
2023-01-18T18:03:01.210Z,98228.19
2023-01-18T18:06:05.988Z,98240.59
2023-01-18T18:09:08.776Z,98244.16
2023-01-18T18:12:13.406Z,98251.06
2023-01-18T18:15:23.796Z,98246.78
2023-01-18T18:18:28.174Z,98243.34
2023-01-18T18:21:32.873Z,98248.56
2023-01-18T18:24:36.306Z,98258.28
2023-01-18T18:27:47.523Z,98262.59
2023-01-18T18:30:54.513Z,98254.84
2023-01-18T18:34:04.648Z,98255.03
2023-01-18T18:37:09.843Z,98254.22
2023-01-18T18:40:17.579Z,98250.84
2023-01-18T18:43:22.202Z,98253.56
2023-01-18T18:46:25.652Z,98257.13
2023-01-18T18:49:30.496Z,98249.50
2023-01-18T18:52:34.869Z,98253.88
2023-01-18T18:55:38.473Z,98253.97
2023-01-18T18:58:42.229Z,98254.59
2023-01-18T19:01:47.360Z,98246.75
2023-01-18T19:04:50.730Z,98244.91
2023-01-18T19:07:56.901Z,98237.03
2023-01-18T19:11:00.821Z,98213.38
2023-01-18T19:14:05.376Z,98228.16
2023-01-18T19:17:09.084Z,98243.00
2023-01-18T19:20:16.211Z,98254.22
2023-01-18T19:23:21.632Z,98255.87
2023-01-18T19:26:25.234Z,98262.81
2023-01-18T19:29:28.760Z,98253.16
2023-01-18T19:32:31.840Z,98251.38
2023-01-18T19:35:48.568Z,98254.94
2023-01-18T19:38:59.355Z,98253.25
2023-01-18T19:42:04.592Z,98257.78
2023-01-18T19:45:11.509Z,98262.38
2023-01-18T19:48:17.306Z,98254.59
2023-01-18T19:51:23.707Z,98249.38
2023-01-18T19:54:27.141Z,98255.25
2023-01-18T19:57:30.512Z,98250.00
2023-01-18T20:00:35.328Z,98264.78
2023-01-18T20:03:38.908Z,98268.44
2023-01-18T20:06:46.496Z,98277.44
2023-01-18T20:09:49.436Z,98291.22
2023-01-18T20:12:52.864Z,98288.63
2023-01-18T20:15:56.125Z,98283.19
2023-01-18T20:18:59.441Z,98283.19
2023-01-18T20:22:03.228Z,98287.59
2023-01-18T20:25:07.268Z,98280.47
2023-01-18T20:28:10.856Z,98289.16
2023-01-18T20:31:15.592Z,98287.25
2023-01-18T20:34:20.640Z,98285.31
2023-01-18T20:37:24.391Z,98275.78
2023-01-18T20:40:27.515Z,98285.31
2023-01-18T20:43:31.188Z,98287.94
2023-01-18T20:46:35.048Z,98301.00
2023-01-18T20:49:41.848Z,98307.91
2023-01-18T20:52:45.177Z,98306.97
2023-01-18T20:55:49.015Z,98322.47
2023-01-18T20:58:53.030Z,98325.81
2023-01-18T21:01:56.963Z,98322.06
2023-01-18T21:05:00.003Z,98309.94
2023-01-18T21:08:03.876Z,98311.72
2023-01-18T21:11:12.855Z,98313.38
2023-01-18T21:14:16.549Z,98309.28
2023-01-18T21:17:19.927Z,98322.19
2023-01-18T21:20:22.195Z,98325.63
2023-01-18T21:23:29.195Z,98322.19
2023-01-18T21:26:32.372Z,98316.41
2023-01-18T21:29:34.716Z,98321.81
2023-01-18T21:32:36.820Z,98318.91
2023-01-18T21:35:39.024Z,98324.56
2023-01-18T21:38:41.943Z,98331.25
2023-01-18T21:42:05.789Z,98322.47
2023-01-18T21:45:29.403Z,98324.56
2023-01-18T21:48:31.936Z,98318.66
2023-01-18T21:51:52.817Z,98326.91
2023-01-18T21:54:55.031Z,98326.19
2023-01-18T21:58:15.603Z,98332.75
2023-01-18T22:01:20.818Z,98337.88
2023-01-18T22:04:42.639Z,98348.97
2023-01-18T22:07:44.744Z,98341.88
2023-01-18T22:10:50.136Z,98336.09
2023-01-18T22:13:52.345Z,98332.63
2023-01-18T22:16:54.467Z,98319.56
2023-01-18T22:19:57.707Z,98325.00
2023-01-18T22:23:05.812Z,98329.28
2023-01-18T22:26:08.031Z,98332.63
2023-01-18T22:29:10.681Z,98327.22
2023-01-18T22:32:12.739Z,98322.09
2023-01-18T22:35:14.929Z,98325.53
2023-01-18T22:38:17.069Z,98346.34
2023-01-18T22:41:21.850Z,98338.44
2023-01-18T22:44:24.095Z,98324.59
2023-01-18T22:47:26.415Z,98311.63
2023-01-18T22:50:28.536Z,98309.84
2023-01-18T22:53:32.671Z,98296.66
2023-01-18T22:56:34.780Z,98295.94
2023-01-18T22:59:36.988Z,98302.00
2023-01-18T23:02:39.057Z,98294.03
2023-01-18T23:05:41.953Z,98292.47
2023-01-18T23:08:44.690Z,98297.59
2023-01-18T23:11:47.839Z,98295.81
2023-01-18T23:15:09.047Z,98305.44
2023-01-18T23:18:11.516Z,98306.28
2023-01-18T23:21:13.723Z,98293.22
2023-01-18T23:24:15.903Z,98295.00
2023-01-18T23:27:18.226Z,98298.34
2023-01-18T23:30:20.711Z,98285.34
2023-01-18T23:33:22.995Z,98283.69
2023-01-18T23:36:25.144Z,98278.34
2023-01-18T23:39:45.683Z,98270.50
2023-01-18T23:43:06.340Z,98265.28
2023-01-18T23:46:26.988Z,98264.63
2023-01-18T23:49:48.071Z,98269.78
2023-01-18T23:53:08.757Z,98277.50
2023-01-18T23:56:10.905Z,98277.63
2023-01-18T23:59:14.357Z,98289.38
